Phayao, Thailand

3:28 PM ICT on June 02, 2015 (GMT +0700)
Chiang Rai International | | Change Station
CLOSE
Current Station
Airport
Location: Chiang Rai International,
Elevation: 1280 ft
Nearby Weather Stations

Elev 1280 ft 19.95 °N, 99.88 °E | Updated 28 minutes ago

Mostly Cloudy
Mostly Cloudy
84 °F
Feels Like 94 °F
N
5
Wind Variable Wind from NNW

Today
High -- | Low -- °F
--% Chance of Precip.
Yesterday
High -- | Low -- °F
Precip. -- in
5:42 AM 6:54 PM
Full, 100% visible
Pressure 29.71 in
Visibility 6.2 miles
Clouds Few 1800 ft
Mostly Cloudy 3500 ft
Heat Index 94 °F
Dew Point 77 °F
Humidity 79%
Rainfall 0.00 in
Snow Depth Not available.
UV 6 out of 12
Pollen Not available.
Air Quality Not available.
Flu Activity Not available.
METAR VTCT 020800Z 33004KT 300V020 9999 FEW018CB BKN035 29/25 Q1006 A 2972 RERA RMK/RWY03 INFO I

More Conditions Fewer Conditions

Pressure 29.71 in
Visibility 6.2 miles
Clouds Few 1800 ft
Mostly Cloudy 3500 ft
Heat Index 94 °F
Dew Point 77 °F
Humidity 79%
Rainfall 0.00 in
Snow Depth Not available.
UV 6 out of 12
Pollen Not available.
Air Quality Not available.
Flu Activity Not available.
METAR VTCT 020800Z 33004KT 300V020 9999 FEW018CB BKN035 29/25 Q1006 A 2972 RERA RMK/RWY03 INFO I

More Conditions Fewer Conditions

10-Day Weather Forecast

Almanac

Astronomy

Jun. 02, 2015 Rise Set
Actual Time
Civil Twilight
Nautical Twilight
Astronomical Twilight
Moon
Length of Visible Light
Length of Day
Tomorrow will be .
, % of the Moon is Illuminated

Today's Extremes

Country Highs Country Lows

Community

WunderPhotos

Upload Photos

1,825,895 photos uploaded!

WunderBlogs® & News

Nearby

Air Quality

  Air Quality AQ Index Pollutant
Not available.

Snow Depth

Station Depth Elevation

Earthquake Activity

City Distance Mag. Time & Date
Minimum magnitude displayed is 2.5.

Coastal Water Temperatures

Place Temperature

Stations

Nearby Weather Stations

Station Location Temp. Windchill Dew Point Humidity Wind Precip. Elev Updated Type